sensor_id;sensor_type;location;lat;lon;timestamp;temperature;humidity
47590;DHT22;33316;52.298;9.056;2023-02-03T00:00:27;8.00;95.60
47590;DHT22;33316;52.298;9.056;2023-02-03T00:02:57;8.10;95.60
47590;DHT22;33316;52.298;9.056;2023-02-03T00:05:24;8.10;95.60
47590;DHT22;33316;52.298;9.056;2023-02-03T00:07:51;8.10;95.60
47590;DHT22;33316;52.298;9.056;2023-02-03T00:10:18;8.10;95.50
47590;DHT22;33316;52.298;9.056;2023-02-03T00:12:46;8.10;95.60
47590;DHT22;33316;52.298;9.056;2023-02-03T00:15:13;8.10;95.60
47590;DHT22;33316;52.298;9.056;2023-02-03T00:17:40;8.10;95.60
47590;DHT22;33316;52.298;9.056;2023-02-03T00:20:10;8.10;95.50
47590;DHT22;33316;52.298;9.056;2023-02-03T00:22:37;8.10;95.50
47590;DHT22;33316;52.298;9.056;2023-02-03T00:25:04;8.10;95.50
47590;DHT22;33316;52.298;9.056;2023-02-03T00:27:31;8.20;95.50
47590;DHT22;33316;52.298;9.056;2023-02-03T00:29:58;8.10;95.50
47590;DHT22;33316;52.298;9.056;2023-02-03T00:32:25;8.20;95.50
47590;DHT22;33316;52.298;9.056;2023-02-03T00:34:52;8.20;95.60
47590;DHT22;33316;52.298;9.056;2023-02-03T00:37:20;8.20;95.60
47590;DHT22;33316;52.298;9.056;2023-02-03T00:39:47;8.20;95.60
47590;DHT22;33316;52.298;9.056;2023-02-03T00:42:14;8.20;95.50
47590;DHT22;33316;52.298;9.056;2023-02-03T00:44:41;8.20;95.50
47590;DHT22;33316;52.298;9.056;2023-02-03T00:47:08;8.20;95.50
47590;DHT22;33316;52.298;9.056;2023-02-03T00:49:35;8.20;95.50
47590;DHT22;33316;52.298;9.056;2023-02-03T00:52:02;8.20;95.50
47590;DHT22;33316;52.298;9.056;2023-02-03T00:54:30;8.20;95.50
47590;DHT22;33316;52.298;9.056;2023-02-03T00:56:57;8.20;95.40
47590;DHT22;33316;52.298;9.056;2023-02-03T00:59:24;8.30;95.50
47590;DHT22;33316;52.298;9.056;2023-02-03T01:01:51;8.30;95.50
47590;DHT22;33316;52.298;9.056;2023-02-03T01:04:17;8.20;95.40
47590;DHT22;33316;52.298;9.056;2023-02-03T01:06:44;8.30;95.40
47590;DHT22;33316;52.298;9.056;2023-02-03T01:09:11;8.20;95.40
47590;DHT22;33316;52.298;9.056;2023-02-03T01:11:39;8.20;95.40
47590;DHT22;33316;52.298;9.056;2023-02-03T01:14:06;8.30;95.40
47590;DHT22;33316;52.298;9.056;2023-02-03T01:16:33;8.30;95.40
47590;DHT22;33316;52.298;9.056;2023-02-03T01:19:03;8.30;95.30
47590;DHT22;33316;52.298;9.056;2023-02-03T01:21:29;8.30;95.30
47590;DHT22;33316;52.298;9.056;2023-02-03T01:23:58;8.30;95.30
47590;DHT22;33316;52.298;9.056;2023-02-03T01:26:25;8.30;95.30
47590;DHT22;33316;52.298;9.056;2023-02-03T01:28:55;8.30;95.70
47590;DHT22;33316;52.298;9.056;2023-02-03T01:31:24;8.30;95.30
47590;DHT22;33316;52.298;9.056;2023-02-03T01:33:52;8.30;95.30
47590;DHT22;33316;52.298;9.056;2023-02-03T01:36:20;8.30;95.20
47590;DHT22;33316;52.298;9.056;2023-02-03T01:38:47;8.30;95.20
47590;DHT22;33316;52.298;9.056;2023-02-03T01:41:16;8.40;95.20
47590;DHT22;33316;52.298;9.056;2023-02-03T01:43:45;8.40;95.60
47590;DHT22;33316;52.298;9.056;2023-02-03T01:46:24;8.40;95.20
47590;DHT22;33316;52.298;9.056;2023-02-03T01:48:52;8.30;95.20
47590;DHT22;33316;52.298;9.056;2023-02-03T01:51:20;8.40;95.20
47590;DHT22;33316;52.298;9.056;2023-02-03T01:53:48;8.40;95.10
47590;DHT22;33316;52.298;9.056;2023-02-03T01:56:16;8.40;95.10
47590;DHT22;33316;52.298;9.056;2023-02-03T01:58:45;8.40;95.10
47590;DHT22;33316;52.298;9.056;2023-02-03T02:01:12;8.40;95.10
47590;DHT22;33316;52.298;9.056;2023-02-03T02:03:43;8.40;95.10
47590;DHT22;33316;52.298;9.056;2023-02-03T02:06:12;8.40;95.10
47590;DHT22;33316;52.298;9.056;2023-02-03T02:08:41;8.40;95.10
47590;DHT22;33316;52.298;9.056;2023-02-03T02:11:10;8.40;95.00
47590;DHT22;33316;52.298;9.056;2023-02-03T02:13:37;8.40;95.00
47590;DHT22;33316;52.298;9.056;2023-02-03T02:16:09;8.40;95.00
47590;DHT22;33316;52.298;9.056;2023-02-03T02:18:49;8.40;95.00
47590;DHT22;33316;52.298;9.056;2023-02-03T02:21:47;8.40;94.90
47590;DHT22;33316;52.298;9.056;2023-02-03T02:24:58;8.40;94.90
47590;DHT22;33316;52.298;9.056;2023-02-03T02:27:42;8.40;94.90
47590;DHT22;33316;52.298;9.056;2023-02-03T02:30:36;8.40;94.80
47590;DHT22;33316;52.298;9.056;2023-02-03T02:33:18;8.40;94.80
47590;DHT22;33316;52.298;9.056;2023-02-03T02:35:55;8.40;94.80
47590;DHT22;33316;52.298;9.056;2023-02-03T02:38:33;8.40;94.80
47590;DHT22;33316;52.298;9.056;2023-02-03T02:41:06;8.40;94.80
47590;DHT22;33316;52.298;9.056;2023-02-03T02:43:40;8.40;94.70
47590;DHT22;33316;52.298;9.056;2023-02-03T02:46:10;8.40;94.70
47590;DHT22;33316;52.298;9.056;2023-02-03T02:48:43;8.40;94.70
47590;DHT22;33316;52.298;9.056;2023-02-03T02:51:13;8.50;95.00
47590;DHT22;33316;52.298;9.056;2023-02-03T02:53:43;8.40;94.60
47590;DHT22;33316;52.298;9.056;2023-02-03T02:56:12;8.40;94.60
47590;DHT22;33316;52.298;9.056;2023-02-03T02:58:43;8.50;94.60
47590;DHT22;33316;52.298;9.056;2023-02-03T03:01:11;8.40;94.60
47590;DHT22;33316;52.298;9.056;2023-02-03T03:03:40;8.40;94.60
47590;DHT22;33316;52.298;9.056;2023-02-03T03:06:13;8.50;94.90
47590;DHT22;33316;52.298;9.056;2023-02-03T03:08:45;8.50;94.60
47590;DHT22;33316;52.298;9.056;2023-02-03T03:11:13;8.50;94.60
47590;DHT22;33316;52.298;9.056;2023-02-03T03:13:44;8.50;94.50
47590;DHT22;33316;52.298;9.056;2023-02-03T03:16:13;8.50;94.50
47590;DHT22;33316;52.298;9.056;2023-02-03T03:18:45;8.50;94.50
47590;DHT22;33316;52.298;9.056;2023-02-03T03:21:18;8.50;94.40
47590;DHT22;33316;52.298;9.056;2023-02-03T03:23:48;8.50;94.40
47590;DHT22;33316;52.298;9.056;2023-02-03T03:26:21;8.50;94.40
47590;DHT22;33316;52.298;9.056;2023-02-03T03:28:56;8.50;94.40
47590;DHT22;33316;52.298;9.056;2023-02-03T03:31:23;8.50;94.70
47590;DHT22;33316;52.298;9.056;2023-02-03T03:33:51;8.50;94.30
47590;DHT22;33316;52.298;9.056;2023-02-03T03:36:23;8.50;94.30
47590;DHT22;33316;52.298;9.056;2023-02-03T03:38:54;8.50;94.30
47590;DHT22;33316;52.298;9.056;2023-02-03T03:41:28;8.50;94.30
47590;DHT22;33316;52.298;9.056;2023-02-03T03:44:00;8.50;94.30
47590;DHT22;33316;52.298;9.056;2023-02-03T03:46:32;8.50;94.20
47590;DHT22;33316;52.298;9.056;2023-02-03T03:49:03;8.50;94.20
47590;DHT22;33316;52.298;9.056;2023-02-03T03:51:33;8.50;94.20
47590;DHT22;33316;52.298;9.056;2023-02-03T03:54:03;8.50;94.20
47590;DHT22;33316;52.298;9.056;2023-02-03T03:56:34;8.50;94.20
47590;DHT22;33316;52.298;9.056;2023-02-03T03:59:03;8.50;94.10
47590;DHT22;33316;52.298;9.056;2023-02-03T04:01:31;8.50;94.10
47590;DHT22;33316;52.298;9.056;2023-02-03T04:04:01;8.50;94.50
47590;DHT22;33316;52.298;9.056;2023-02-03T04:06:30;8.50;94.10
47590;DHT22;33316;52.298;9.056;2023-02-03T04:08:56;8.50;94.10
47590;DHT22;33316;52.298;9.056;2023-02-03T04:11:23;8.50;94.10
47590;DHT22;33316;52.298;9.056;2023-02-03T04:14:12;8.50;94.10
47590;DHT22;33316;52.298;9.056;2023-02-03T04:16:39;8.60;94.00
47590;DHT22;33316;52.298;9.056;2023-02-03T04:19:06;8.50;94.00
47590;DHT22;33316;52.298;9.056;2023-02-03T04:21:34;8.50;93.90
47590;DHT22;33316;52.298;9.056;2023-02-03T04:24:01;8.60;93.90
47590;DHT22;33316;52.298;9.056;2023-02-03T04:26:27;8.60;93.90
47590;DHT22;33316;52.298;9.056;2023-02-03T04:28:54;8.60;93.90
47590;DHT22;33316;52.298;9.056;2023-02-03T04:31:21;8.60;93.90
47590;DHT22;33316;52.298;9.056;2023-02-03T04:33:47;8.60;93.90
47590;DHT22;33316;52.298;9.056;2023-02-03T04:36:14;8.60;93.90
47590;DHT22;33316;52.298;9.056;2023-02-03T04:38:42;8.60;93.80
47590;DHT22;33316;52.298;9.056;2023-02-03T04:41:09;8.60;93.80
47590;DHT22;33316;52.298;9.056;2023-02-03T04:43:35;8.60;93.80
47590;DHT22;33316;52.298;9.056;2023-02-03T04:46:02;8.60;93.70
47590;DHT22;33316;52.298;9.056;2023-02-03T04:48:29;8.60;93.70
47590;DHT22;33316;52.298;9.056;2023-02-03T04:51:00;8.60;93.70
47590;DHT22;33316;52.298;9.056;2023-02-03T04:53:27;8.60;93.70
47590;DHT22;33316;52.298;9.056;2023-02-03T04:55:55;8.60;93.70
47590;DHT22;33316;52.298;9.056;2023-02-03T04:58:21;8.60;93.60
47590;DHT22;33316;52.298;9.056;2023-02-03T05:00:48;8.60;93.60
47590;DHT22;33316;52.298;9.056;2023-02-03T05:03:15;8.60;93.60
47590;DHT22;33316;52.298;9.056;2023-02-03T05:05:41;8.70;93.90
47590;DHT22;33316;52.298;9.056;2023-02-03T05:08:08;8.60;93.50
47590;DHT22;33316;52.298;9.056;2023-02-03T05:10:35;8.70;93.50
47590;DHT22;33316;52.298;9.056;2023-02-03T05:13:03;8.60;93.50
47590;DHT22;33316;52.298;9.056;2023-02-03T05:15:30;8.70;93.80
47590;DHT22;33316;52.298;9.056;2023-02-03T05:17:56;8.70;93.40
47590;DHT22;33316;52.298;9.056;2023-02-03T05:20:23;8.60;93.40
47590;DHT22;33316;52.298;9.056;2023-02-03T05:22:50;8.70;93.30
47590;DHT22;33316;52.298;9.056;2023-02-03T05:25:16;8.70;93.30
47590;DHT22;33316;52.298;9.056;2023-02-03T05:27:43;8.70;93.30
47590;DHT22;33316;52.298;9.056;2023-02-03T05:30:12;8.70;93.30
47590;DHT22;33316;52.298;9.056;2023-02-03T05:32:38;8.70;93.20
47590;DHT22;33316;52.298;9.056;2023-02-03T05:35:06;8.70;93.20
47590;DHT22;33316;52.298;9.056;2023-02-03T05:37:33;8.70;93.20
47590;DHT22;33316;52.298;9.056;2023-02-03T05:39:59;8.70;93.20
47590;DHT22;33316;52.298;9.056;2023-02-03T05:42:45;8.70;93.20
47590;DHT22;33316;52.298;9.056;2023-02-03T05:45:14;8.70;93.10
47590;DHT22;33316;52.298;9.056;2023-02-03T05:47:41;8.70;93.10
47590;DHT22;33316;52.298;9.056;2023-02-03T05:50:08;8.70;93.10
47590;DHT22;33316;52.298;9.056;2023-02-03T05:52:34;8.70;93.10
47590;DHT22;33316;52.298;9.056;2023-02-03T05:55:01;8.70;93.00
47590;DHT22;33316;52.298;9.056;2023-02-03T05:57:28;8.80;93.10
47590;DHT22;33316;52.298;9.056;2023-02-03T05:59:54;8.80;93.10
47590;DHT22;33316;52.298;9.056;2023-02-03T06:02:22;8.80;93.10
47590;DHT22;33316;52.298;9.056;2023-02-03T06:04:49;8.80;93.10
47590;DHT22;33316;52.298;9.056;2023-02-03T06:07:16;8.70;93.40
47590;DHT22;33316;52.298;9.056;2023-02-03T06:09:42;8.80;93.10
47590;DHT22;33316;52.298;9.056;2023-02-03T06:12:09;8.80;93.10
47590;DHT22;33316;52.298;9.056;2023-02-03T06:14:36;8.80;93.10
47590;DHT22;33316;52.298;9.056;2023-02-03T06:17:03;8.70;93.10
47590;DHT22;33316;52.298;9.056;2023-02-03T06:19:31;8.80;93.20
47590;DHT22;33316;52.298;9.056;2023-02-03T06:21:57;8.80;93.30
47590;DHT22;33316;52.298;9.056;2023-02-03T06:24:24;8.80;93.30
47590;DHT22;33316;52.298;9.056;2023-02-03T06:26:51;8.70;93.40
47590;DHT22;33316;52.298;9.056;2023-02-03T06:29:17;8.70;93.40
47590;DHT22;33316;52.298;9.056;2023-02-03T06:31:44;8.80;93.50
47590;DHT22;33316;52.298;9.056;2023-02-03T06:34:11;8.70;93.50
47590;DHT22;33316;52.298;9.056;2023-02-03T06:36:39;8.70;93.60
47590;DHT22;33316;52.298;9.056;2023-02-03T06:39:06;8.70;93.70
47590;DHT22;33316;52.298;9.056;2023-02-03T06:41:32;8.70;93.70
47590;DHT22;33316;52.298;9.056;2023-02-03T06:43:59;8.70;93.80
47590;DHT22;33316;52.298;9.056;2023-02-03T06:46:26;8.70;93.80
47590;DHT22;33316;52.298;9.056;2023-02-03T06:48:54;8.70;93.90
47590;DHT22;33316;52.298;9.056;2023-02-03T06:51:21;8.70;93.90
47590;DHT22;33316;52.298;9.056;2023-02-03T06:53:50;8.70;94.10
47590;DHT22;33316;52.298;9.056;2023-02-03T06:56:17;8.70;94.00
47590;DHT22;33316;52.298;9.056;2023-02-03T06:58:44;8.70;94.00
47590;DHT22;33316;52.298;9.056;2023-02-03T07:01:10;8.70;94.10
47590;DHT22;33316;52.298;9.056;2023-02-03T07:03:37;8.70;94.10
47590;DHT22;33316;52.298;9.056;2023-02-03T07:06:05;8.70;94.20
47590;DHT22;33316;52.298;9.056;2023-02-03T07:08:31;8.70;94.30
47590;DHT22;33316;52.298;9.056;2023-02-03T07:10:59;8.70;94.30
47590;DHT22;33316;52.298;9.056;2023-02-03T07:13:26;8.70;94.40
47590;DHT22;33316;52.298;9.056;2023-02-03T07:15:53;8.70;94.50
47590;DHT22;33316;52.298;9.056;2023-02-03T07:18:19;8.70;94.60
47590;DHT22;33316;52.298;9.056;2023-02-03T07:20:49;8.70;94.60
47590;DHT22;33316;52.298;9.056;2023-02-03T07:23:15;8.70;94.70
47590;DHT22;33316;52.298;9.056;2023-02-03T07:25:42;8.70;94.80
47590;DHT22;33316;52.298;9.056;2023-02-03T07:28:11;8.70;94.90
47590;DHT22;33316;52.298;9.056;2023-02-03T07:30:37;8.60;94.90
47590;DHT22;33316;52.298;9.056;2023-02-03T07:33:04;8.60;95.00
47590;DHT22;33316;52.298;9.056;2023-02-03T07:35:32;8.60;95.10
47590;DHT22;33316;52.298;9.056;2023-02-03T07:37:59;8.60;95.10
47590;DHT22;33316;52.298;9.056;2023-02-03T07:40:25;8.60;95.10
47590;DHT22;33316;52.298;9.056;2023-02-03T07:42:52;8.60;95.10
47590;DHT22;33316;52.298;9.056;2023-02-03T07:45:21;8.60;95.10
47590;DHT22;33316;52.298;9.056;2023-02-03T07:47:49;8.60;95.20
47590;DHT22;33316;52.298;9.056;2023-02-03T07:50:16;8.60;95.20
47590;DHT22;33316;52.298;9.056;2023-02-03T07:52:43;8.70;95.20
47590;DHT22;33316;52.298;9.056;2023-02-03T07:55:10;8.60;95.20
47590;DHT22;33316;52.298;9.056;2023-02-03T07:57:36;8.60;95.30
47590;DHT22;33316;52.298;9.056;2023-02-03T08:00:08;8.60;95.30
47590;DHT22;33316;52.298;9.056;2023-02-03T08:02:37;8.60;95.30
47590;DHT22;33316;52.298;9.056;2023-02-03T08:05:04;8.70;95.30
47590;DHT22;33316;52.298;9.056;2023-02-03T08:07:30;8.60;95.30
47590;DHT22;33316;52.298;9.056;2023-02-03T08:09:57;8.70;95.40
47590;DHT22;33316;52.298;9.056;2023-02-03T08:12:26;8.70;95.40
47590;DHT22;33316;52.298;9.056;2023-02-03T08:14:53;8.70;95.40
47590;DHT22;33316;52.298;9.056;2023-02-03T08:17:20;8.70;95.40
47590;DHT22;33316;52.298;9.056;2023-02-03T08:19:48;8.70;95.40
47590;DHT22;33316;52.298;9.056;2023-02-03T08:22:14;8.70;95.30
47590;DHT22;33316;52.298;9.056;2023-02-03T08:24:44;8.70;95.30
47590;DHT22;33316;52.298;9.056;2023-02-03T08:27:15;8.70;95.30
47590;DHT22;33316;52.298;9.056;2023-02-03T08:29:45;8.70;95.30
47590;DHT22;33316;52.298;9.056;2023-02-03T08:32:16;8.80;95.30
47590;DHT22;33316;52.298;9.056;2023-02-03T08:34:44;8.80;95.30
47590;DHT22;33316;52.298;9.056;2023-02-03T08:37:13;8.70;95.20
47590;DHT22;33316;52.298;9.056;2023-02-03T08:39:43;8.80;95.30
47590;DHT22;33316;52.298;9.056;2023-02-03T08:42:10;8.80;95.30
47590;DHT22;33316;52.298;9.056;2023-02-03T08:44:40;8.80;95.30
47590;DHT22;33316;52.298;9.056;2023-02-03T08:47:09;8.80;95.20
47590;DHT22;33316;52.298;9.056;2023-02-03T08:49:38;8.80;95.20
47590;DHT22;33316;52.298;9.056;2023-02-03T08:52:06;8.80;95.20
47590;DHT22;33316;52.298;9.056;2023-02-03T08:54:36;8.80;95.20
47590;DHT22;33316;52.298;9.056;2023-02-03T08:57:03;8.80;95.20
47590;DHT22;33316;52.298;9.056;2023-02-03T08:59:30;8.90;95.20
47590;DHT22;33316;52.298;9.056;2023-02-03T09:02:00;8.90;95.10
47590;DHT22;33316;52.298;9.056;2023-02-03T09:04:28;8.90;95.10
47590;DHT22;33316;52.298;9.056;2023-02-03T09:06:55;8.90;95.10
47590;DHT22;33316;52.298;9.056;2023-02-03T09:09:22;8.90;95.00
47590;DHT22;33316;52.298;9.056;2023-02-03T09:11:52;9.00;95.10
47590;DHT22;33316;52.298;9.056;2023-02-03T09:14:19;9.00;95.00
47590;DHT22;33316;52.298;9.056;2023-02-03T09:16:46;9.00;94.90
47590;DHT22;33316;52.298;9.056;2023-02-03T09:19:13;9.10;94.90
47590;DHT22;33316;52.298;9.056;2023-02-03T09:21:39;9.10;94.90
47590;DHT22;33316;52.298;9.056;2023-02-03T09:24:07;9.10;94.80
47590;DHT22;33316;52.298;9.056;2023-02-03T09:26:34;9.10;94.70
47590;DHT22;33316;52.298;9.056;2023-02-03T09:29:02;9.10;94.50
47590;DHT22;33316;52.298;9.056;2023-02-03T09:31:28;9.20;94.50
47590;DHT22;33316;52.298;9.056;2023-02-03T09:33:58;9.20;94.50
47590;DHT22;33316;52.298;9.056;2023-02-03T09:36:25;9.20;94.40
47590;DHT22;33316;52.298;9.056;2023-02-03T09:38:52;9.20;94.40
47590;DHT22;33316;52.298;9.056;2023-02-03T09:41:27;9.20;94.50
47590;DHT22;33316;52.298;9.056;2023-02-03T09:44:03;9.20;94.60
47590;DHT22;33316;52.298;9.056;2023-02-03T09:46:36;9.20;94.70
47590;DHT22;33316;52.298;9.056;2023-02-03T09:49:08;9.20;94.80
47590;DHT22;33316;52.298;9.056;2023-02-03T09:51:42;9.10;94.80
47590;DHT22;33316;52.298;9.056;2023-02-03T09:54:16;9.10;94.80
47590;DHT22;33316;52.298;9.056;2023-02-03T09:56:45;9.10;94.90
47590;DHT22;33316;52.298;9.056;2023-02-03T09:59:18;9.10;95.00
47590;DHT22;33316;52.298;9.056;2023-02-03T10:01:51;9.10;95.00
47590;DHT22;33316;52.298;9.056;2023-02-03T10:04:25;9.10;95.10
47590;DHT22;33316;52.298;9.056;2023-02-03T10:07:01;9.10;95.10
47590;DHT22;33316;52.298;9.056;2023-02-03T10:09:41;9.10;95.10
47590;DHT22;33316;52.298;9.056;2023-02-03T10:12:30;9.10;95.20
47590;DHT22;33316;52.298;9.056;2023-02-03T10:15:19;9.10;95.20
47590;DHT22;33316;52.298;9.056;2023-02-03T10:17:52;9.10;95.30
47590;DHT22;33316;52.298;9.056;2023-02-03T10:20:25;9.10;95.30
47590;DHT22;33316;52.298;9.056;2023-02-03T10:23:03;9.10;95.30
47590;DHT22;33316;52.298;9.056;2023-02-03T10:25:34;9.10;95.30
47590;DHT22;33316;52.298;9.056;2023-02-03T10:28:09;9.10;95.30
47590;DHT22;33316;52.298;9.056;2023-02-03T10:30:41;9.10;95.30
47590;DHT22;33316;52.298;9.056;2023-02-03T10:33:15;9.10;95.20
47590;DHT22;33316;52.298;9.056;2023-02-03T10:35:48;9.10;95.20
47590;DHT22;33316;52.298;9.056;2023-02-03T10:38:22;9.10;95.10
47590;DHT22;33316;52.298;9.056;2023-02-03T10:40:52;9.10;95.10
47590;DHT22;33316;52.298;9.056;2023-02-03T10:43:19;9.10;95.10
47590;DHT22;33316;52.298;9.056;2023-02-03T10:46:05;9.10;95.10
47590;DHT22;33316;52.298;9.056;2023-02-03T10:48:34;9.10;95.00
47590;DHT22;33316;52.298;9.056;2023-02-03T10:51:02;9.10;95.00
47590;DHT22;33316;52.298;9.056;2023-02-03T10:53:32;9.20;95.00
47590;DHT22;33316;52.298;9.056;2023-02-03T10:56:02;9.20;95.00
47590;DHT22;33316;52.298;9.056;2023-02-03T10:58:30;9.20;95.00
47590;DHT22;33316;52.298;9.056;2023-02-03T11:01:07;9.20;95.00
47590;DHT22;33316;52.298;9.056;2023-02-03T11:03:34;9.20;95.00
47590;DHT22;33316;52.298;9.056;2023-02-03T11:06:07;9.20;94.90
47590;DHT22;33316;52.298;9.056;2023-02-03T11:08:35;9.20;94.80
47590;DHT22;33316;52.298;9.056;2023-02-03T11:11:04;9.20;94.80
47590;DHT22;33316;52.298;9.056;2023-02-03T11:13:31;9.20;94.70
47590;DHT22;33316;52.298;9.056;2023-02-03T11:15:59;9.20;94.60
47590;DHT22;33316;52.298;9.056;2023-02-03T11:18:47;9.20;94.50
47590;DHT22;33316;52.298;9.056;2023-02-03T11:21:19;9.30;94.50
47590;DHT22;33316;52.298;9.056;2023-02-03T11:23:52;9.20;94.40
47590;DHT22;33316;52.298;9.056;2023-02-03T11:26:23;9.30;94.30
47590;DHT22;33316;52.298;9.056;2023-02-03T11:28:53;9.30;94.30
47590;DHT22;33316;52.298;9.056;2023-02-03T11:31:24;9.30;94.20
47590;DHT22;33316;52.298;9.056;2023-02-03T11:33:57;9.30;94.20
47590;DHT22;33316;52.298;9.056;2023-02-03T11:36:29;9.40;94.10
47590;DHT22;33316;52.298;9.056;2023-02-03T11:39:19;9.40;94.00
47590;DHT22;33316;52.298;9.056;2023-02-03T11:41:46;9.40;93.90
47590;DHT22;33316;52.298;9.056;2023-02-03T11:44:21;9.40;93.80
47590;DHT22;33316;52.298;9.056;2023-02-03T11:46:51;9.40;93.80
47590;DHT22;33316;52.298;9.056;2023-02-03T11:49:47;9.40;93.70
47590;DHT22;33316;52.298;9.056;2023-02-03T11:55:25;9.40;93.60
47590;DHT22;33316;52.298;9.056;2023-02-03T11:58:05;9.40;93.50
47590;DHT22;33316;52.298;9.056;2023-02-03T12:00:37;9.40;93.40
47590;DHT22;33316;52.298;9.056;2023-02-03T12:06:24;9.50;93.20
47590;DHT22;33316;52.298;9.056;2023-02-03T12:09:04;9.50;93.20
47590;DHT22;33316;52.298;9.056;2023-02-03T12:11:44;9.50;93.20
47590;DHT22;33316;52.298;9.056;2023-02-03T12:14:23;9.50;93.00
47590;DHT22;33316;52.298;9.056;2023-02-03T12:17:21;9.50;93.00
47590;DHT22;33316;52.298;9.056;2023-02-03T12:20:04;9.50;92.90
47590;DHT22;33316;52.298;9.056;2023-02-03T12:22:54;9.50;92.90
47590;DHT22;33316;52.298;9.056;2023-02-03T12:25:37;9.50;92.80
47590;DHT22;33316;52.298;9.056;2023-02-03T12:28:20;9.50;92.70
47590;DHT22;33316;52.298;9.056;2023-02-03T12:30:55;9.60;92.70
47590;DHT22;33316;52.298;9.056;2023-02-03T12:33:27;9.60;92.60
47590;DHT22;33316;52.298;9.056;2023-02-03T12:35:59;9.60;92.40
47590;DHT22;33316;52.298;9.056;2023-02-03T12:38:37;9.60;92.30
47590;DHT22;33316;52.298;9.056;2023-02-03T12:41:11;9.60;92.10
47590;DHT22;33316;52.298;9.056;2023-02-03T12:43:42;9.70;91.90
47590;DHT22;33316;52.298;9.056;2023-02-03T12:46:17;9.70;91.90
47590;DHT22;33316;52.298;9.056;2023-02-03T12:48:50;9.70;91.80
47590;DHT22;33316;52.298;9.056;2023-02-03T12:51:27;9.70;91.70
47590;DHT22;33316;52.298;9.056;2023-02-03T12:54:01;9.70;91.70
47590;DHT22;33316;52.298;9.056;2023-02-03T12:56:35;9.70;91.50
47590;DHT22;33316;52.298;9.056;2023-02-03T12:59:08;9.80;91.30
47590;DHT22;33316;52.298;9.056;2023-02-03T13:01:46;9.80;91.20
47590;DHT22;33316;52.298;9.056;2023-02-03T13:04:27;9.80;91.10
47590;DHT22;33316;52.298;9.056;2023-02-03T13:07:01;9.80;90.90
47590;DHT22;33316;52.298;9.056;2023-02-03T13:09:37;9.80;90.80
47590;DHT22;33316;52.298;9.056;2023-02-03T13:12:07;9.80;90.90
47590;DHT22;33316;52.298;9.056;2023-02-03T13:14:40;9.80;91.10
47590;DHT22;33316;52.298;9.056;2023-02-03T13:17:10;9.80;90.00
47590;DHT22;33316;52.298;9.056;2023-02-03T13:19:43;9.80;87.70
47590;DHT22;33316;52.298;9.056;2023-02-03T13:22:13;9.90;89.10
47590;DHT22;33316;52.298;9.056;2023-02-03T13:24:44;9.90;88.20
47590;DHT22;33316;52.298;9.056;2023-02-03T13:30:16;9.90;86.20
47590;DHT22;33316;52.298;9.056;2023-02-03T13:33:00;9.90;86.00
47590;DHT22;33316;52.298;9.056;2023-02-03T13:35:41;9.90;85.60
47590;DHT22;33316;52.298;9.056;2023-02-03T13:38:29;9.90;84.80
47590;DHT22;33316;52.298;9.056;2023-02-03T13:41:05;9.90;84.60
47590;DHT22;33316;52.298;9.056;2023-02-03T13:43:35;9.90;84.50
47590;DHT22;33316;52.298;9.056;2023-02-03T13:46:04;9.90;84.40
47590;DHT22;33316;52.298;9.056;2023-02-03T13:48:32;9.90;84.20
47590;DHT22;33316;52.298;9.056;2023-02-03T13:51:05;9.90;83.50
47590;DHT22;33316;52.298;9.056;2023-02-03T13:53:34;9.90;83.60
47590;DHT22;33316;52.298;9.056;2023-02-03T13:56:05;9.80;84.50
47590;DHT22;33316;52.298;9.056;2023-02-03T13:58:34;9.80;83.70
47590;DHT22;33316;52.298;9.056;2023-02-03T14:03:47;9.80;83.70
47590;DHT22;33316;52.298;9.056;2023-02-03T14:09:40;9.70;84.30
47590;DHT22;33316;52.298;9.056;2023-02-03T14:15:28;9.70;84.50
47590;DHT22;33316;52.298;9.056;2023-02-03T14:17:59;9.70;84.20
47590;DHT22;33316;52.298;9.056;2023-02-03T14:20:50;9.70;84.00
47590;DHT22;33316;52.298;9.056;2023-02-03T14:23:25;9.70;83.50
47590;DHT22;33316;52.298;9.056;2023-02-03T14:25:58;9.60;83.70
47590;DHT22;33316;52.298;9.056;2023-02-03T14:28:35;9.70;83.40
47590;DHT22;33316;52.298;9.056;2023-02-03T14:31:11;9.60;81.60
47590;DHT22;33316;52.298;9.056;2023-02-03T14:34:05;9.60;82.60
47590;DHT22;33316;52.298;9.056;2023-02-03T14:36:39;9.60;82.90
47590;DHT22;33316;52.298;9.056;2023-02-03T14:39:32;9.60;82.30
47590;DHT22;33316;52.298;9.056;2023-02-03T14:42:09;9.50;80.90
47590;DHT22;33316;52.298;9.056;2023-02-03T14:44:45;9.50;81.00
47590;DHT22;33316;52.298;9.056;2023-02-03T14:47:23;9.50;81.20
47590;DHT22;33316;52.298;9.056;2023-02-03T14:50:03;9.50;81.50
47590;DHT22;33316;52.298;9.056;2023-02-03T14:52:48;9.40;81.70
47590;DHT22;33316;52.298;9.056;2023-02-03T14:55:34;9.40;81.60
47590;DHT22;33316;52.298;9.056;2023-02-03T14:58:06;9.40;80.80
47590;DHT22;33316;52.298;9.056;2023-02-03T15:00:40;9.40;80.80
47590;DHT22;33316;52.298;9.056;2023-02-03T15:03:19;9.40;79.60
47590;DHT22;33316;52.298;9.056;2023-02-03T15:05:48;9.30;78.70
47590;DHT22;33316;52.298;9.056;2023-02-03T15:08:38;9.30;79.40
47590;DHT22;33316;52.298;9.056;2023-02-03T15:11:41;9.30;78.40
47590;DHT22;33316;52.298;9.056;2023-02-03T15:14:20;9.30;78.00
47590;DHT22;33316;52.298;9.056;2023-02-03T15:16:53;9.20;78.80
47590;DHT22;33316;52.298;9.056;2023-02-03T15:19:23;9.30;79.20
47590;DHT22;33316;52.298;9.056;2023-02-03T15:21:50;9.20;79.40
47590;DHT22;33316;52.298;9.056;2023-02-03T15:24:19;9.20;79.00
47590;DHT22;33316;52.298;9.056;2023-02-03T15:26:50;9.20;79.30
47590;DHT22;33316;52.298;9.056;2023-02-03T15:29:28;9.10;79.20
47590;DHT22;33316;52.298;9.056;2023-02-03T15:32:01;9.20;79.10
47590;DHT22;33316;52.298;9.056;2023-02-03T15:34:34;9.10;79.30
47590;DHT22;33316;52.298;9.056;2023-02-03T15:37:07;9.10;79.20
47590;DHT22;33316;52.298;9.056;2023-02-03T15:39:47;9.10;79.10
47590;DHT22;33316;52.298;9.056;2023-02-03T15:42:21;9.00;79.20
47590;DHT22;33316;52.298;9.056;2023-02-03T15:44:53;9.00;79.50
47590;DHT22;33316;52.298;9.056;2023-02-03T15:47:26;9.00;79.50
47590;DHT22;33316;52.298;9.056;2023-02-03T15:50:03;9.00;79.60
47590;DHT22;33316;52.298;9.056;2023-02-03T15:52:34;9.00;79.30
47590;DHT22;33316;52.298;9.056;2023-02-03T15:55:14;9.00;79.70
47590;DHT22;33316;52.298;9.056;2023-02-03T15:57:43;9.00;79.80
47590;DHT22;33316;52.298;9.056;2023-02-03T16:00:25;9.00;79.60
47590;DHT22;33316;52.298;9.056;2023-02-03T16:02:56;8.90;79.40
47590;DHT22;33316;52.298;9.056;2023-02-03T16:05:26;8.90;79.40
47590;DHT22;33316;52.298;9.056;2023-02-03T16:07:53;8.90;79.40
47590;DHT22;33316;52.298;9.056;2023-02-03T16:10:29;8.90;80.00
47590;DHT22;33316;52.298;9.056;2023-02-03T16:13:18;8.90;79.30
47590;DHT22;33316;52.298;9.056;2023-02-03T16:16:00;8.90;79.20
47590;DHT22;33316;52.298;9.056;2023-02-03T16:18:32;8.90;79.50
47590;DHT22;33316;52.298;9.056;2023-02-03T16:21:00;8.80;79.60
47590;DHT22;33316;52.298;9.056;2023-02-03T16:23:28;8.80;79.60
47590;DHT22;33316;52.298;9.056;2023-02-03T16:26:02;8.80;79.60
47590;DHT22;33316;52.298;9.056;2023-02-03T16:28:29;8.80;79.30